createdAt,value
2019-03-15T00:00:10.541Z,7.62
2019-03-15T00:02:37.848Z,7.08
2019-03-15T00:05:05.214Z,6.78
2019-03-15T00:07:32.546Z,7.35
2019-03-15T00:09:59.841Z,7.33
2019-03-15T00:12:27.146Z,8.65
2019-03-15T00:14:54.474Z,6.78
2019-03-15T00:17:21.788Z,7.50
2019-03-15T00:19:49.117Z,6.70
2019-03-15T00:22:16.422Z,7.60
2019-03-15T00:24:44.797Z,6.50
2019-03-15T00:27:12.175Z,7.05
2019-03-15T00:29:39.475Z,8.18
2019-03-15T00:32:06.775Z,10.13
2019-03-15T00:34:34.129Z,6.80
2019-03-15T00:37:01.445Z,9.23
2019-03-15T00:39:28.779Z,10.40
2019-03-15T00:41:56.100Z,6.72
2019-03-15T00:44:23.427Z,7.85
2019-03-15T00:46:50.733Z,7.40
2019-03-15T00:49:18.049Z,6.85
2019-03-15T00:51:45.388Z,7.37
2019-03-15T00:54:12.691Z,6.72
2019-03-15T00:56:40.099Z,6.55
2019-03-15T00:59:07.417Z,6.53
2019-03-15T01:01:34.758Z,7.00
2019-03-15T01:04:02.053Z,6.92
2019-03-15T01:06:29.363Z,6.53
2019-03-15T01:08:56.696Z,7.12
2019-03-15T01:11:24.003Z,9.08
2019-03-15T01:13:51.311Z,6.37
2019-03-15T01:16:18.645Z,7.00
2019-03-15T01:18:45.938Z,7.15
2019-03-15T01:21:13.241Z,7.35
2019-03-15T01:23:40.578Z,7.03
2019-03-15T01:26:07.878Z,6.80
2019-03-15T01:28:35.178Z,7.62
2019-03-15T01:31:02.590Z,7.30
2019-03-15T01:33:29.887Z,7.83
2019-03-15T01:35:57.232Z,7.83
2019-03-15T01:38:24.535Z,6.78
2019-03-15T01:40:51.830Z,8.00
2019-03-15T01:43:19.167Z,6.50
2019-03-15T01:45:46.503Z,7.28
2019-03-15T01:48:13.803Z,8.25
2019-03-15T01:50:41.150Z,10.90
2019-03-15T01:53:08.459Z,7.28
2019-03-15T01:55:35.763Z,10.35
2019-03-15T01:58:03.077Z,7.37
2019-03-15T02:00:30.429Z,10.88
2019-03-15T02:02:57.730Z,8.55
2019-03-15T02:05:25.041Z,7.70
2019-03-15T02:07:52.396Z,8.53
2019-03-15T02:10:22.158Z,18.67
2019-03-15T02:12:48.829Z,7.85
2019-03-15T02:15:16.157Z,13.03
2019-03-15T02:17:43.489Z,9.30
2019-03-15T02:20:10.798Z,10.53
2019-03-15T02:22:38.164Z,10.70
2019-03-15T02:25:05.442Z,11.83
2019-03-15T02:27:32.747Z,9.05
2019-03-15T02:30:00.083Z,8.78
2019-03-15T02:32:27.501Z,12.95
2019-03-15T02:34:54.805Z,11.88
2019-03-15T02:37:22.139Z,9.35
2019-03-15T02:39:49.434Z,8.75
2019-03-15T02:42:16.785Z,13.72
2019-03-15T02:44:44.076Z,16.70
2019-03-15T02:47:11.461Z,19.32
2019-03-15T02:49:38.798Z,12.10
2019-03-15T02:52:06.124Z,14.30
2019-03-15T02:54:33.438Z,21.20
2019-03-15T02:57:00.756Z,11.57
2019-03-15T02:59:28.081Z,13.40
2019-03-15T03:01:55.412Z,13.28
2019-03-15T03:04:22.728Z,14.33
2019-03-15T03:06:50.070Z,16.65
2019-03-15T03:09:17.390Z,14.03
2019-03-15T03:11:44.730Z,13.40
2019-03-15T03:14:12.034Z,12.85
2019-03-15T03:16:39.342Z,17.15
2019-03-15T03:19:06.683Z,19.50
2019-03-15T03:21:34.020Z,13.70
2019-03-15T03:24:01.334Z,14.35
2019-03-15T03:26:28.672Z,19.50
2019-03-15T03:28:55.996Z,14.75
2019-03-15T03:31:23.329Z,18.32
2019-03-15T03:33:50.655Z,15.85
2019-03-15T03:36:17.967Z,15.40
2019-03-15T03:38:45.274Z,18.35
2019-03-15T03:41:12.633Z,18.77
2019-03-15T03:43:39.914Z,14.98
2019-03-15T03:46:07.233Z,13.50
2019-03-15T03:48:35.457Z,15.13
2019-03-15T03:51:02.779Z,20.40
2019-03-15T03:53:30.126Z,21.68
2019-03-15T03:55:57.451Z,24.30
2019-03-15T03:58:24.768Z,21.93
2019-03-15T04:00:52.116Z,13.72
2019-03-15T04:03:19.437Z,19.70
2019-03-15T04:05:46.754Z,16.25
2019-03-15T04:08:14.100Z,14.80
2019-03-15T04:10:41.418Z,18.35
2019-03-15T04:13:08.890Z,12.95
2019-03-15T04:15:36.206Z,15.83
2019-03-15T04:18:06.536Z,18.30
2019-03-15T04:20:32.554Z,18.60
2019-03-15T04:22:59.889Z,14.68
2019-03-15T04:25:27.305Z,15.48
2019-03-15T04:27:54.649Z,15.28
2019-03-15T04:30:21.961Z,15.68
2019-03-15T04:32:49.351Z,21.17
2019-03-15T04:35:16.686Z,16.62
2019-03-15T04:37:44.016Z,12.82
2019-03-15T04:40:11.526Z,20.15
2019-03-15T04:42:38.947Z,17.30
2019-03-15T04:45:07.772Z,11.40
2019-03-15T04:47:35.164Z,16.57
2019-03-15T04:50:02.510Z,12.35
2019-03-15T04:52:29.900Z,17.80
2019-03-15T04:54:57.249Z,18.85
2019-03-15T04:57:24.591Z,17.70
2019-03-15T04:59:51.900Z,15.80
2019-03-15T05:02:19.223Z,13.45
2019-03-15T05:04:46.782Z,12.00
2019-03-15T05:07:14.146Z,19.15
2019-03-15T05:09:41.471Z,18.25
2019-03-15T05:12:08.975Z,17.02
2019-03-15T05:14:36.497Z,16.93
2019-03-15T05:17:03.813Z,13.88
2019-03-15T05:19:31.184Z,15.55
2019-03-15T05:21:58.549Z,18.12
2019-03-15T05:24:25.858Z,17.95
2019-03-15T05:26:53.290Z,11.70
2019-03-15T05:29:20.601Z,23.73
2019-03-15T05:31:47.918Z,12.82
2019-03-15T05:34:15.272Z,12.47
2019-03-15T05:36:42.577Z,17.23
2019-03-15T05:39:09.890Z,21.10
2019-03-15T05:41:37.754Z,19.17
2019-03-15T05:44:05.042Z,13.53
2019-03-15T05:46:32.359Z,18.52
2019-03-15T05:48:59.697Z,18.65
2019-03-15T05:51:27.091Z,17.15
2019-03-15T05:53:54.428Z,15.18
2019-03-15T05:56:21.815Z,14.33
2019-03-15T05:58:49.131Z,16.00
2019-03-15T06:01:16.562Z,20.35
2019-03-15T06:03:48.944Z,17.90
2019-03-15T06:06:13.035Z,14.80
2019-03-15T06:08:40.283Z,17.27
2019-03-15T06:11:07.677Z,18.70
2019-03-15T06:13:34.989Z,16.37
2019-03-15T06:16:02.346Z,17.52
2019-03-15T06:18:29.663Z,16.23
2019-03-15T06:20:56.990Z,16.50
2019-03-15T06:23:24.353Z,15.25
2019-03-15T06:25:51.654Z,13.35
2019-03-15T06:28:18.968Z,17.50
2019-03-15T06:30:46.320Z,14.47
2019-03-15T06:33:13.628Z,20.95
2019-03-15T06:35:40.937Z,13.53
2019-03-15T06:38:08.316Z,15.15
2019-03-15T06:40:35.612Z,13.20
2019-03-15T06:43:02.923Z,16.12
2019-03-15T06:45:31.865Z,18.55
2019-03-15T06:47:59.388Z,14.83
2019-03-15T06:50:26.699Z,19.50
2019-03-15T06:52:54.015Z,15.75
2019-03-15T06:55:21.355Z,16.80
2019-03-15T06:57:48.672Z,14.13
2019-03-15T07:00:15.988Z,14.28
2019-03-15T07:02:43.311Z,18.35
2019-03-15T07:05:12.107Z,16.07
2019-03-15T07:07:39.593Z,15.28
2019-03-15T07:10:08.560Z,17.32
2019-03-15T07:12:35.897Z,16.57
2019-03-15T07:15:03.979Z,11.80
2019-03-15T07:17:31.283Z,17.87
2019-03-15T07:19:58.619Z,19.02
2019-03-15T07:22:25.973Z,13.78
2019-03-15T07:24:53.268Z,13.50
2019-03-15T07:27:21.449Z,15.90
2019-03-15T07:29:49.113Z,13.88
2019-03-15T07:32:16.431Z,13.20
2019-03-15T07:34:43.762Z,18.92
2019-03-15T07:37:11.070Z,19.07
2019-03-15T07:39:38.408Z,17.07
2019-03-15T07:42:06.536Z,15.78
2019-03-15T07:44:34.254Z,18.62
2019-03-15T07:47:01.554Z,11.60
2019-03-15T07:49:28.882Z,11.45
2019-03-15T07:51:56.199Z,16.93
2019-03-15T07:54:23.494Z,11.35
2019-03-15T07:56:50.814Z,13.58
2019-03-15T07:59:18.128Z,21.05
2019-03-15T08:01:45.459Z,12.70
2019-03-15T08:04:17.181Z,16.52
2019-03-15T08:06:41.723Z,17.80
2019-03-15T08:09:09.265Z,13.60
2019-03-15T08:11:36.564Z,12.58
2019-03-15T08:14:03.882Z,15.03
2019-03-15T08:16:34.307Z,17.65
2019-03-15T08:19:00.174Z,13.88
2019-03-15T08:21:27.531Z,21.42
2019-03-15T08:23:54.835Z,13.40
2019-03-15T08:26:22.159Z,11.43
2019-03-15T08:28:49.467Z,12.70
2019-03-15T08:31:16.784Z,17.50
2019-03-15T08:33:44.144Z,14.30
2019-03-15T08:36:11.457Z,16.85
2019-03-15T08:38:47.538Z,15.72
2019-03-15T08:41:07.752Z,15.85
2019-03-15T08:43:35.129Z,13.55
2019-03-15T08:46:03.127Z,16.62
2019-03-15T08:48:31.947Z,16.40
2019-03-15T08:50:59.368Z,18.73
2019-03-15T08:53:26.672Z,17.98
2019-03-15T08:55:54.008Z,15.80
2019-03-15T08:58:22.313Z,17.67
2019-03-15T09:00:49.869Z,15.83
2019-03-15T09:03:27.097Z,19.02
2019-03-15T09:05:46.142Z,16.52
2019-03-15T09:08:13.469Z,15.40
2019-03-15T09:10:40.797Z,31.65
2019-03-15T09:13:08.191Z,12.43
2019-03-15T09:15:35.593Z,14.20
2019-03-15T09:18:02.861Z,10.43
2019-03-15T09:20:30.790Z,19.48
2019-03-15T09:22:58.274Z,15.95
2019-03-15T09:25:25.581Z,13.18
2019-03-15T09:27:52.906Z,15.43
2019-03-15T09:30:24.426Z,17.23
2019-03-15T09:32:49.208Z,8.65
2019-03-15T09:35:16.482Z,8.70
2019-03-15T09:37:47.064Z,8.25
2019-03-15T09:40:15.898Z,9.68
2019-03-15T09:42:43.162Z,7.67
2019-03-15T09:45:14.803Z,13.20
2019-03-15T09:47:42.116Z,8.85
2019-03-15T09:50:21.076Z,11.40
2019-03-15T09:52:39.267Z,9.35
2019-03-15T09:55:07.885Z,11.50
2019-03-15T09:57:35.182Z,9.83
2019-03-15T10:00:02.503Z,12.03
2019-03-15T10:02:30.870Z,8.28
2019-03-15T10:05:10.251Z,8.10
2019-03-15T10:07:37.857Z,11.78
2019-03-15T10:09:56.256Z,8.03
2019-03-15T10:12:23.600Z,9.35
2019-03-15T10:14:50.888Z,7.45
2019-03-15T10:17:18.244Z,9.88
2019-03-15T10:19:45.552Z,8.65
2019-03-15T10:22:12.849Z,7.12
2019-03-15T10:24:40.189Z,6.95
2019-03-15T10:27:07.486Z,6.45
2019-03-15T10:29:34.797Z,7.67
2019-03-15T10:32:02.130Z,6.15
2019-03-15T10:34:29.455Z,5.75
2019-03-15T10:36:56.788Z,7.42
2019-03-15T10:39:24.092Z,7.00
2019-03-15T10:41:51.418Z,5.50
2019-03-15T10:44:18.730Z,6.33
2019-03-15T10:46:46.158Z,6.08
2019-03-15T10:49:13.467Z,5.70
2019-03-15T10:51:40.780Z,8.15
2019-03-15T10:54:08.094Z,6.53
2019-03-15T10:56:35.393Z,8.00
2019-03-15T10:59:02.735Z,6.80
2019-03-15T11:01:30.072Z,6.40
2019-03-15T11:03:57.379Z,6.55
2019-03-15T11:06:24.691Z,6.42
2019-03-15T11:08:52.019Z,7.03
2019-03-15T11:11:19.366Z,6.90
2019-03-15T11:13:46.662Z,9.40
2019-03-15T11:16:14.042Z,6.55
2019-03-15T11:18:41.304Z,7.80
2019-03-15T11:21:08.602Z,9.63
2019-03-15T11:23:35.931Z,5.92
2019-03-15T11:26:13.038Z,6.05
2019-03-15T11:28:32.223Z,9.13
2019-03-15T11:31:00.834Z,5.33
2019-03-15T11:33:28.276Z,5.87
2019-03-15T11:35:55.608Z,5.80
2019-03-15T11:38:22.907Z,5.20
2019-03-15T11:40:50.211Z,5.28
2019-03-15T11:43:17.533Z,5.70
2019-03-15T11:45:44.889Z,5.87
2019-03-15T11:48:12.184Z,5.30
2019-03-15T11:50:39.500Z,5.25
2019-03-15T11:53:06.820Z,4.80
2019-03-15T11:55:34.151Z,4.90
2019-03-15T11:58:01.489Z,10.60
2019-03-15T12:00:28.795Z,5.95
2019-03-15T12:02:56.103Z,4.87
2019-03-15T12:05:23.437Z,4.90
2019-03-15T12:07:50.761Z,7.72
2019-03-15T12:10:18.083Z,4.95
2019-03-15T12:12:45.381Z,4.78
2019-03-15T12:15:13.259Z,4.65
2019-03-15T12:17:40.588Z,4.75
2019-03-15T12:20:08.670Z,4.47
2019-03-15T12:22:35.974Z,4.10
2019-03-15T12:25:04.152Z,5.55
2019-03-15T12:27:31.530Z,4.10
2019-03-15T12:29:58.986Z,3.80
2019-03-15T12:32:27.181Z,4.70
2019-03-15T12:34:55.452Z,4.62
2019-03-15T12:37:23.013Z,4.55
2019-03-15T12:39:51.522Z,4.45
2019-03-15T12:42:18.912Z,4.00
2019-03-15T12:44:46.525Z,5.05
2019-03-15T12:47:14.043Z,4.55
2019-03-15T12:49:41.671Z,4.50
2019-03-15T12:52:09.273Z,3.95
2019-03-15T12:54:36.654Z,4.37
2019-03-15T12:57:03.968Z,4.30
2019-03-15T12:59:31.266Z,4.10
2019-03-15T13:01:58.608Z,4.50
2019-03-15T13:04:25.920Z,4.30
2019-03-15T13:06:53.232Z,4.45
2019-03-15T13:09:20.555Z,4.15
2019-03-15T13:11:47.862Z,4.05
2019-03-15T13:14:15.198Z,4.03
2019-03-15T13:16:42.502Z,4.30
2019-03-15T13:19:09.849Z,4.33
2019-03-15T13:21:37.142Z,5.10
2019-03-15T13:24:04.455Z,4.20
2019-03-15T13:26:31.794Z,4.53
2019-03-15T13:28:59.107Z,5.17
2019-03-15T13:31:26.412Z,3.70
2019-03-15T13:33:53.743Z,4.25
2019-03-15T13:36:21.087Z,3.92
2019-03-15T13:38:48.371Z,4.30
2019-03-15T13:41:15.721Z,4.20
2019-03-15T13:43:43.031Z,4.10
2019-03-15T13:46:10.360Z,4.00
2019-03-15T13:48:37.671Z,4.03
2019-03-15T13:51:05.002Z,4.45
2019-03-15T13:53:32.314Z,4.95
2019-03-15T13:55:59.712Z,4.22
2019-03-15T13:58:27.018Z,6.87
2019-03-15T14:00:54.351Z,4.45
2019-03-15T14:03:21.679Z,3.75
2019-03-15T14:05:48.989Z,3.83
2019-03-15T14:08:16.287Z,3.95
2019-03-15T14:10:49.214Z,3.62
2019-03-15T14:13:12.573Z,3.58
2019-03-15T14:15:39.878Z,3.60
2019-03-15T14:18:07.203Z,3.87
2019-03-15T14:20:34.554Z,3.60
2019-03-15T14:23:01.862Z,3.50
2019-03-15T14:25:29.539Z,6.25
2019-03-15T14:27:56.863Z,3.60
2019-03-15T14:30:24.582Z,3.62
2019-03-15T14:32:51.932Z,2.92
2019-03-15T14:35:19.234Z,2.75
2019-03-15T14:37:46.799Z,3.15
2019-03-15T14:40:14.116Z,2.72
2019-03-15T14:42:41.592Z,3.30
2019-03-15T14:45:10.011Z,3.22
2019-03-15T14:47:37.337Z,2.90
2019-03-15T14:50:06.267Z,3.70
2019-03-15T14:52:33.603Z,3.42
2019-03-15T14:55:00.927Z,3.00
2019-03-15T14:57:28.324Z,2.70
2019-03-15T14:59:55.538Z,2.90
2019-03-15T15:02:22.877Z,2.92
2019-03-15T15:04:50.180Z,2.98
2019-03-15T15:07:17.488Z,2.72
2019-03-15T15:09:47.449Z,2.98
2019-03-15T15:12:13.794Z,2.80
2019-03-15T15:14:41.108Z,3.83
2019-03-15T15:17:08.420Z,3.60
2019-03-15T15:19:35.744Z,2.60
2019-03-15T15:22:03.063Z,2.70
2019-03-15T15:24:30.544Z,2.77
2019-03-15T15:26:57.851Z,3.00
2019-03-15T15:29:25.163Z,2.60
2019-03-15T15:31:52.487Z,2.87
2019-03-15T15:34:19.786Z,2.75
2019-03-15T15:36:47.110Z,2.70
2019-03-15T15:39:14.417Z,2.75
2019-03-15T15:41:41.726Z,2.80
2019-03-15T15:44:09.049Z,2.70
2019-03-15T15:46:36.354Z,3.22
2019-03-15T15:49:03.662Z,2.85
2019-03-15T15:51:30.991Z,2.60
2019-03-15T15:53:58.290Z,2.60
2019-03-15T15:56:25.620Z,2.70
2019-03-15T15:58:52.941Z,2.85
2019-03-15T16:01:20.246Z,13.90
2019-03-15T16:03:47.678Z,3.95
2019-03-15T16:06:14.983Z,2.98
2019-03-15T16:08:42.292Z,3.58
2019-03-15T16:11:09.633Z,4.85
2019-03-15T16:13:36.952Z,2.55
2019-03-15T16:16:04.310Z,2.60
2019-03-15T16:18:31.665Z,2.33
2019-03-15T16:20:58.951Z,2.72
2019-03-15T16:23:26.282Z,2.00
2019-03-15T16:25:53.586Z,2.62
2019-03-15T16:28:30.943Z,2.50
2019-03-15T16:30:49.880Z,2.40
2019-03-15T16:33:17.181Z,2.30
2019-03-15T16:35:44.504Z,2.40
2019-03-15T16:38:11.823Z,2.50
2019-03-15T16:40:39.158Z,2.50
2019-03-15T16:43:06.488Z,2.30
2019-03-15T16:45:33.793Z,2.20
2019-03-15T16:48:01.102Z,4.40
2019-03-15T16:50:28.422Z,2.58
2019-03-15T16:52:55.730Z,3.70
2019-03-15T16:55:23.039Z,2.45
2019-03-15T16:57:50.367Z,2.35
2019-03-15T17:00:17.654Z,2.70
2019-03-15T17:02:44.990Z,2.60
2019-03-15T17:05:12.557Z,6.62
2019-03-15T17:07:39.881Z,2.80
2019-03-15T17:10:08.655Z,3.05
2019-03-15T17:12:35.979Z,2.52
2019-03-15T17:15:04.064Z,2.55
2019-03-15T17:17:31.374Z,3.70
2019-03-15T17:19:58.694Z,2.72
2019-03-15T17:22:26.009Z,2.62
2019-03-15T17:24:53.359Z,2.70
2019-03-15T17:27:20.675Z,2.83
2019-03-15T17:29:47.982Z,2.52
2019-03-15T17:32:15.297Z,3.15
2019-03-15T17:34:42.604Z,2.87
2019-03-15T17:37:09.936Z,2.92
2019-03-15T17:39:37.358Z,3.20
2019-03-15T17:42:04.726Z,2.65
2019-03-15T17:44:32.046Z,3.30
2019-03-15T17:46:59.339Z,2.75
2019-03-15T17:49:26.677Z,3.50
2019-03-15T17:51:53.973Z,3.65
2019-03-15T17:54:21.283Z,3.50
2019-03-15T17:56:48.615Z,3.40
2019-03-15T17:59:15.935Z,4.97
2019-03-15T18:01:43.262Z,4.15
2019-03-15T18:04:10.699Z,3.00
2019-03-15T18:06:38.176Z,3.30
2019-03-15T18:09:05.665Z,3.00
2019-03-15T18:11:32.972Z,3.25
2019-03-15T18:14:00.295Z,3.00
2019-03-15T18:16:27.597Z,3.30
2019-03-15T18:18:54.935Z,3.40
2019-03-15T18:21:22.243Z,2.92
2019-03-15T18:23:49.567Z,2.75
2019-03-15T18:26:16.880Z,3.00
2019-03-15T18:28:44.215Z,2.77
2019-03-15T18:31:11.523Z,3.05
2019-03-15T18:33:38.871Z,2.70
2019-03-15T18:36:06.169Z,4.78
2019-03-15T18:38:33.524Z,2.83
2019-03-15T18:41:01.735Z,3.08
2019-03-15T18:43:29.038Z,2.95
2019-03-15T18:45:56.344Z,2.67
2019-03-15T18:48:23.667Z,3.30
2019-03-15T18:50:51.004Z,3.20
2019-03-15T18:53:18.311Z,3.40
2019-03-15T18:55:45.605Z,3.40
2019-03-15T18:58:12.943Z,3.25
2019-03-15T19:00:40.265Z,2.80
2019-03-15T19:03:07.592Z,2.85
2019-03-15T19:05:34.886Z,2.70
2019-03-15T19:08:02.195Z,3.20
2019-03-15T19:10:29.530Z,2.98
2019-03-15T19:12:56.876Z,3.30
2019-03-15T19:15:24.195Z,3.75
2019-03-15T19:17:51.498Z,3.35
2019-03-15T19:20:18.833Z,3.83
2019-03-15T19:22:46.137Z,3.75
2019-03-15T19:25:13.934Z,4.30
2019-03-15T19:27:41.242Z,3.98
2019-03-15T19:30:18.031Z,5.10
2019-03-15T19:32:45.339Z,4.83
2019-03-15T19:35:12.776Z,4.17
2019-03-15T19:37:40.089Z,4.33
2019-03-15T19:40:11.468Z,4.37
2019-03-15T19:42:38.797Z,4.28
2019-03-15T19:45:07.885Z,4.60
2019-03-15T19:47:35.189Z,3.62
2019-03-15T19:50:02.783Z,4.47
2019-03-15T19:52:30.122Z,3.70
2019-03-15T19:55:00.731Z,3.65
2019-03-15T19:57:26.390Z,3.98
2019-03-15T20:00:06.620Z,4.00
2019-03-15T20:02:22.824Z,3.35
2019-03-15T20:04:50.109Z,3.45
2019-03-15T20:07:17.447Z,3.47
2019-03-15T20:09:44.758Z,4.33
2019-03-15T20:12:12.063Z,3.75
2019-03-15T20:14:39.391Z,3.40
2019-03-15T20:17:06.717Z,3.45
2019-03-15T20:19:34.021Z,3.98
2019-03-15T20:22:01.363Z,3.55
2019-03-15T20:24:28.667Z,4.20
2019-03-15T20:26:55.978Z,3.95
2019-03-15T20:29:23.316Z,3.20
2019-03-15T20:31:50.626Z,3.85
2019-03-15T20:34:17.927Z,3.52
2019-03-15T20:36:45.287Z,3.37
2019-03-15T20:39:12.602Z,2.90
2019-03-15T20:41:39.941Z,3.22
2019-03-15T20:44:07.313Z,3.20
2019-03-15T20:46:35.908Z,3.10
2019-03-15T20:49:03.581Z,2.87
2019-03-15T20:51:30.879Z,6.25
2019-03-15T20:53:58.211Z,3.27
2019-03-15T20:56:25.521Z,2.90
2019-03-15T20:58:52.855Z,2.60
2019-03-15T21:01:20.164Z,3.45
2019-03-15T21:03:55.927Z,2.75
2019-03-15T21:06:16.465Z,2.80
2019-03-15T21:08:43.794Z,5.12
2019-03-15T21:11:11.108Z,3.40
2019-03-15T21:13:38.443Z,3.12
2019-03-15T21:16:05.743Z,3.27
2019-03-15T21:18:33.047Z,3.10
2019-03-15T21:21:00.380Z,3.20
2019-03-15T21:23:27.689Z,3.60
2019-03-15T21:25:55.024Z,3.35
2019-03-15T21:28:22.326Z,5.37
2019-03-15T21:30:49.667Z,2.80
2019-03-15T21:33:16.981Z,3.15
2019-03-15T21:35:44.310Z,2.60
2019-03-15T21:38:11.619Z,2.87
2019-03-15T21:40:38.926Z,3.33
2019-03-15T21:43:06.258Z,2.90
2019-03-15T21:45:33.562Z,2.62
2019-03-15T21:48:00.901Z,2.77
2019-03-15T21:50:28.194Z,4.22
2019-03-15T21:52:55.504Z,2.70
2019-03-15T21:55:22.825Z,2.60
2019-03-15T21:57:50.130Z,2.40
2019-03-15T22:00:17.818Z,2.60
2019-03-15T22:02:45.135Z,3.33
2019-03-15T22:05:12.525Z,2.95
2019-03-15T22:07:39.907Z,2.65
2019-03-15T22:10:08.514Z,2.42
2019-03-15T22:12:35.839Z,2.50
2019-03-15T22:15:03.358Z,2.50
2019-03-15T22:17:30.702Z,2.55
2019-03-15T22:19:57.970Z,2.40
2019-03-15T22:22:25.293Z,2.55
2019-03-15T22:24:52.590Z,3.08
2019-03-15T22:27:19.914Z,3.02
2019-03-15T22:29:53.338Z,3.40
2019-03-15T22:32:16.220Z,3.72
2019-03-15T22:34:43.528Z,3.50
2019-03-15T22:37:10.837Z,3.55
2019-03-15T22:39:38.170Z,4.20
2019-03-15T22:42:05.488Z,5.08
2019-03-15T22:44:32.795Z,3.80
2019-03-15T22:47:00.131Z,2.90
2019-03-15T22:49:27.430Z,3.12
2019-03-15T22:51:54.768Z,6.55
2019-03-15T22:54:22.071Z,7.17
2019-03-15T22:56:49.378Z,3.10
2019-03-15T22:59:16.697Z,3.40
2019-03-15T23:01:44.111Z,3.02
2019-03-15T23:04:11.419Z,3.27
2019-03-15T23:06:38.714Z,6.70
2019-03-15T23:09:06.206Z,3.15
2019-03-15T23:11:33.510Z,3.15
2019-03-15T23:14:00.853Z,3.42
2019-03-15T23:16:28.154Z,7.90
2019-03-15T23:18:55.462Z,3.30
2019-03-15T23:21:22.783Z,2.90
2019-03-15T23:23:50.117Z,3.60
2019-03-15T23:26:17.416Z,3.90
2019-03-15T23:28:47.156Z,2.70
2019-03-15T23:31:13.694Z,3.08
2019-03-15T23:33:40.999Z,2.92
2019-03-15T23:36:08.331Z,3.47
2019-03-15T23:38:35.638Z,3.00
2019-03-15T23:41:02.946Z,3.87
2019-03-15T23:43:30.277Z,2.55
2019-03-15T23:45:57.591Z,3.47
2019-03-15T23:48:24.909Z,3.02
2019-03-15T23:50:52.242Z,3.20
2019-03-15T23:53:19.571Z,5.15
2019-03-15T23:55:46.884Z,3.40
2019-03-15T23:58:14.200Z,2.80
